Terminal Aerodrome Forecast
Issued by NWS Charleston, WV

Home | Current Version | Previous Version | Text Only | Print | Product List | Glossary On
Versions: 1 2 3 4 5 6 7 8 9 10 11 12 13 14 15 16 17 18 19 20 21 22 23 24 25 26 27 28 29 30 31 32 33 34 35 36 37 38 39 40 41 42 43 44 45 46 47 48 49 50
000
FTUS41 KRLX 231133
TAFEKN
TAF
KEKN 231133Z 2312/2412 00000KT P6SM SCT014 BKN025
     FM231400 VRB03KT P6SM VCSH OVC023
     FM240100 VRB03KT P6SM SCT040
     FM240600 00000KT 2SM BR SCT001
     FM240700 00000KT 1/2SM FG VV001=

USA.gov is the U.S. government's official web portal to all federal, state and local government web resources and services.